Weather at Tokyo Haneda International Airport

Public forecast

Using degrees Celsius for public forecast. Weather courtesy of forecast.io.

Current aviation weather report (METAR) for Tokyo Haneda International Airport

2023/02/04 15:00 (retrieved 32 minutes ago)

RJTT 041500Z 35019KT CAVOK 08/00 Q1016 NOSIG RMK A3002

Aviation forecast (TAF) for Tokyo Haneda International Airport

2023/02/04 12:30 (retrieved 3 hours ago)

TAF RJTT 041106Z 0412/0518 34012KT 9999 FEW030 BECMG 0500/0503 10006KT BECMG 0515/0518 34010KT